sensor_id;sensor_type;location;lat;lon;timestamp;temperature;humidity
23520;DHT22;11936;50.820;4.336;2023-03-01T00:01:39;5.00;90.80
23520;DHT22;11936;50.820;4.336;2023-03-01T00:04:05;4.90;90.70
23520;DHT22;11936;50.820;4.336;2023-03-01T00:06:31;5.00;90.80
23520;DHT22;11936;50.820;4.336;2023-03-01T00:08:56;5.00;90.80
23520;DHT22;11936;50.820;4.336;2023-03-01T00:11:27;5.00;90.80
23520;DHT22;11936;50.820;4.336;2023-03-01T00:13:55;5.00;90.60
23520;DHT22;11936;50.820;4.336;2023-03-01T00:16:30;5.00;90.80
23520;DHT22;11936;50.820;4.336;2023-03-01T00:18:57;5.00;91.00
23520;DHT22;11936;50.820;4.336;2023-03-01T00:21:23;4.90;91.00
23520;DHT22;11936;50.820;4.336;2023-03-01T00:23:49;4.90;91.00
23520;DHT22;11936;50.820;4.336;2023-03-01T00:26:16;5.00;91.20
23520;DHT22;11936;50.820;4.336;2023-03-01T00:28:42;4.80;91.20
23520;DHT22;11936;50.820;4.336;2023-03-01T00:31:14;4.90;91.20
23520;DHT22;11936;50.820;4.336;2023-03-01T00:33:40;4.90;91.20
23520;DHT22;11936;50.820;4.336;2023-03-01T00:36:07;4.90;91.40
23520;DHT22;11936;50.820;4.336;2023-03-01T00:38:40;4.80;91.30
23520;DHT22;11936;50.820;4.336;2023-03-01T00:41:14;4.80;91.40
23520;DHT22;11936;50.820;4.336;2023-03-01T00:43:41;4.80;91.50
23520;DHT22;11936;50.820;4.336;2023-03-01T00:46:09;4.80;91.60
23520;DHT22;11936;50.820;4.336;2023-03-01T00:48:35;4.80;91.50
23520;DHT22;11936;50.820;4.336;2023-03-01T00:51:08;4.80;91.40
23520;DHT22;11936;50.820;4.336;2023-03-01T00:53:35;4.80;91.40
23520;DHT22;11936;50.820;4.336;2023-03-01T00:56:01;4.90;91.30
23520;DHT22;11936;50.820;4.336;2023-03-01T00:58:27;4.80;91.40
23520;DHT22;11936;50.820;4.336;2023-03-01T01:00:53;4.70;91.50
23520;DHT22;11936;50.820;4.336;2023-03-01T01:03:19;4.70;91.50
23520;DHT22;11936;50.820;4.336;2023-03-01T01:05:44;4.60;91.60
23520;DHT22;11936;50.820;4.336;2023-03-01T01:08:11;4.60;91.70
23520;DHT22;11936;50.820;4.336;2023-03-01T01:10:36;4.60;91.90
23520;DHT22;11936;50.820;4.336;2023-03-01T01:13:02;4.50;91.60
23520;DHT22;11936;50.820;4.336;2023-03-01T01:15:28;4.50;91.70
23520;DHT22;11936;50.820;4.336;2023-03-01T01:17:54;4.50;91.80
23520;DHT22;11936;50.820;4.336;2023-03-01T01:20:20;4.50;92.00
23520;DHT22;11936;50.820;4.336;2023-03-01T01:22:46;4.60;92.00
23520;DHT22;11936;50.820;4.336;2023-03-01T01:25:11;4.60;91.80
23520;DHT22;11936;50.820;4.336;2023-03-01T01:27:37;4.60;91.60
23520;DHT22;11936;50.820;4.336;2023-03-01T01:30:04;4.60;91.80
23520;DHT22;11936;50.820;4.336;2023-03-01T01:32:29;4.50;91.90
23520;DHT22;11936;50.820;4.336;2023-03-01T01:34:55;4.40;91.90
23520;DHT22;11936;50.820;4.336;2023-03-01T01:37:21;4.40;92.20
23520;DHT22;11936;50.820;4.336;2023-03-01T01:39:47;4.40;92.30
23520;DHT22;11936;50.820;4.336;2023-03-01T01:42:15;4.40;92.30
23520;DHT22;11936;50.820;4.336;2023-03-01T01:44:42;4.40;92.20
23520;DHT22;11936;50.820;4.336;2023-03-01T01:47:14;4.40;92.20
23520;DHT22;11936;50.820;4.336;2023-03-01T01:49:50;4.40;92.30
23520;DHT22;11936;50.820;4.336;2023-03-01T01:52:18;4.40;92.40
23520;DHT22;11936;50.820;4.336;2023-03-01T01:57:46;4.50;92.40
23520;DHT22;11936;50.820;4.336;2023-03-01T02:00:19;4.30;92.50
23520;DHT22;11936;50.820;4.336;2023-03-01T02:02:46;4.30;92.50
23520;DHT22;11936;50.820;4.336;2023-03-01T02:07:43;4.30;92.60
23520;DHT22;11936;50.820;4.336;2023-03-01T02:10:10;4.30;92.70
23520;DHT22;11936;50.820;4.336;2023-03-01T02:12:36;4.40;92.70
23520;DHT22;11936;50.820;4.336;2023-03-01T02:15:02;4.30;92.80
23520;DHT22;11936;50.820;4.336;2023-03-01T02:17:28;4.30;92.60
23520;DHT22;11936;50.820;4.336;2023-03-01T02:22:38;4.20;92.90
23520;DHT22;11936;50.820;4.336;2023-03-01T02:30:37;4.30;92.90
23520;DHT22;11936;50.820;4.336;2023-03-01T02:33:25;4.20;93.00
23520;DHT22;11936;50.820;4.336;2023-03-01T02:35:51;4.20;93.00
23520;DHT22;11936;50.820;4.336;2023-03-01T02:38:17;4.20;93.20
23520;DHT22;11936;50.820;4.336;2023-03-01T02:40:43;4.20;93.20
23520;DHT22;11936;50.820;4.336;2023-03-01T02:43:10;4.20;93.30
23520;DHT22;11936;50.820;4.336;2023-03-01T02:45:37;4.20;93.20
23520;DHT22;11936;50.820;4.336;2023-03-01T02:48:03;4.30;93.10
23520;DHT22;11936;50.820;4.336;2023-03-01T02:55:31;4.20;93.20
23520;DHT22;11936;50.820;4.336;2023-03-01T02:57:57;4.20;93.10
23520;DHT22;11936;50.820;4.336;2023-03-01T03:00:28;4.20;93.20
23520;DHT22;11936;50.820;4.336;2023-03-01T03:02:55;4.20;93.10
23520;DHT22;11936;50.820;4.336;2023-03-01T03:05:28;4.20;93.20
23520;DHT22;11936;50.820;4.336;2023-03-01T03:07:54;4.10;93.30
23520;DHT22;11936;50.820;4.336;2023-03-01T03:10:26;4.20;93.50
23520;DHT22;11936;50.820;4.336;2023-03-01T03:13:03;4.20;93.30
23520;DHT22;11936;50.820;4.336;2023-03-01T03:15:29;4.20;93.40
23520;DHT22;11936;50.820;4.336;2023-03-01T03:17:55;4.00;93.40
23520;DHT22;11936;50.820;4.336;2023-03-01T03:20:24;4.10;93.40
23520;DHT22;11936;50.820;4.336;2023-03-01T03:22:51;3.90;93.50
23520;DHT22;11936;50.820;4.336;2023-03-01T03:25:17;4.10;93.50
23520;DHT22;11936;50.820;4.336;2023-03-01T03:27:45;4.10;93.60
23520;DHT22;11936;50.820;4.336;2023-03-01T03:30:14;4.00;93.60
23520;DHT22;11936;50.820;4.336;2023-03-01T03:32:41;4.10;93.60
23520;DHT22;11936;50.820;4.336;2023-03-01T03:35:09;4.00;93.50
23520;DHT22;11936;50.820;4.336;2023-03-01T03:37:39;4.00;93.70
23520;DHT22;11936;50.820;4.336;2023-03-01T03:40:24;3.90;93.80
23520;DHT22;11936;50.820;4.336;2023-03-01T03:42:50;3.90;93.80
23520;DHT22;11936;50.820;4.336;2023-03-01T03:45:16;3.90;93.70
23520;DHT22;11936;50.820;4.336;2023-03-01T03:47:43;3.90;93.80
23520;DHT22;11936;50.820;4.336;2023-03-01T03:50:11;3.90;93.80
23520;DHT22;11936;50.820;4.336;2023-03-01T03:52:36;4.00;93.80
23520;DHT22;11936;50.820;4.336;2023-03-01T03:55:03;4.00;93.70
23520;DHT22;11936;50.820;4.336;2023-03-01T03:57:28;4.00;93.70
23520;DHT22;11936;50.820;4.336;2023-03-01T03:59:54;3.80;93.80
23520;DHT22;11936;50.820;4.336;2023-03-01T04:02:20;3.80;93.90
23520;DHT22;11936;50.820;4.336;2023-03-01T04:04:48;3.80;94.00
23520;DHT22;11936;50.820;4.336;2023-03-01T04:07:15;3.80;94.20
23520;DHT22;11936;50.820;4.336;2023-03-01T04:09:42;3.90;94.10
23520;DHT22;11936;50.820;4.336;2023-03-01T04:12:08;3.80;94.20
23520;DHT22;11936;50.820;4.336;2023-03-01T04:14:34;3.80;94.10
23520;DHT22;11936;50.820;4.336;2023-03-01T04:16:59;3.70;94.20
23520;DHT22;11936;50.820;4.336;2023-03-01T04:19:25;3.80;94.40
23520;DHT22;11936;50.820;4.336;2023-03-01T04:21:52;3.80;94.30
23520;DHT22;11936;50.820;4.336;2023-03-01T04:24:18;3.80;94.30
23520;DHT22;11936;50.820;4.336;2023-03-01T04:26:44;3.80;94.20
23520;DHT22;11936;50.820;4.336;2023-03-01T04:29:09;3.70;94.40
23520;DHT22;11936;50.820;4.336;2023-03-01T04:31:35;3.80;94.40
23520;DHT22;11936;50.820;4.336;2023-03-01T04:34:00;3.80;94.50
23520;DHT22;11936;50.820;4.336;2023-03-01T04:36:28;3.80;94.50
23520;DHT22;11936;50.820;4.336;2023-03-01T04:38:54;3.70;94.60
23520;DHT22;11936;50.820;4.336;2023-03-01T04:41:22;3.60;94.70
23520;DHT22;11936;50.820;4.336;2023-03-01T04:43:49;3.60;94.80
23520;DHT22;11936;50.820;4.336;2023-03-01T04:46:17;3.70;94.70
23520;DHT22;11936;50.820;4.336;2023-03-01T04:48:43;3.60;94.90
23520;DHT22;11936;50.820;4.336;2023-03-01T04:51:10;3.50;94.90
23520;DHT22;11936;50.820;4.336;2023-03-01T04:53:39;3.50;95.00
23520;DHT22;11936;50.820;4.336;2023-03-01T04:56:05;3.60;95.00
23520;DHT22;11936;50.820;4.336;2023-03-01T04:58:30;3.70;95.00
23520;DHT22;11936;50.820;4.336;2023-03-01T05:00:56;3.60;95.00
23520;DHT22;11936;50.820;4.336;2023-03-01T05:03:22;3.60;95.10
23520;DHT22;11936;50.820;4.336;2023-03-01T05:05:49;3.50;95.40
23520;DHT22;11936;50.820;4.336;2023-03-01T05:08:15;3.50;95.10
23520;DHT22;11936;50.820;4.336;2023-03-01T05:10:56;3.50;95.20
23520;DHT22;11936;50.820;4.336;2023-03-01T05:13:22;3.40;95.40
23520;DHT22;11936;50.820;4.336;2023-03-01T05:15:58;3.40;95.40
23520;DHT22;11936;50.820;4.336;2023-03-01T05:18:26;3.40;95.30
23520;DHT22;11936;50.820;4.336;2023-03-01T05:20:55;3.20;95.40
23520;DHT22;11936;50.820;4.336;2023-03-01T05:23:26;3.20;95.80
23520;DHT22;11936;50.820;4.336;2023-03-01T05:25:51;3.20;95.80
23520;DHT22;11936;50.820;4.336;2023-03-01T05:28:18;3.20;96.00
23520;DHT22;11936;50.820;4.336;2023-03-01T05:30:45;3.20;96.40
23520;DHT22;11936;50.820;4.336;2023-03-01T05:33:11;3.30;96.20
23520;DHT22;11936;50.820;4.336;2023-03-01T05:35:44;3.40;96.00
23520;DHT22;11936;50.820;4.336;2023-03-01T05:38:13;3.40;95.60
23520;DHT22;11936;50.820;4.336;2023-03-01T05:40:39;3.30;95.70
23520;DHT22;11936;50.820;4.336;2023-03-01T05:43:04;3.40;95.80
23520;DHT22;11936;50.820;4.336;2023-03-01T05:45:31;3.30;95.90
23520;DHT22;11936;50.820;4.336;2023-03-01T05:48:00;3.30;95.90
23520;DHT22;11936;50.820;4.336;2023-03-01T05:50:28;3.40;95.90
23520;DHT22;11936;50.820;4.336;2023-03-01T05:53:00;3.50;95.90
23520;DHT22;11936;50.820;4.336;2023-03-01T05:55:26;3.40;95.90
23520;DHT22;11936;50.820;4.336;2023-03-01T05:57:52;3.40;95.90
23520;DHT22;11936;50.820;4.336;2023-03-01T06:00:19;3.40;95.80
23520;DHT22;11936;50.820;4.336;2023-03-01T06:02:45;3.50;95.80
23520;DHT22;11936;50.820;4.336;2023-03-01T06:05:14;3.40;95.90
23520;DHT22;11936;50.820;4.336;2023-03-01T06:07:40;3.40;96.00
23520;DHT22;11936;50.820;4.336;2023-03-01T06:10:07;3.30;95.90
23520;DHT22;11936;50.820;4.336;2023-03-01T06:12:34;3.30;96.10
23520;DHT22;11936;50.820;4.336;2023-03-01T06:15:00;3.20;96.30
23520;DHT22;11936;50.820;4.336;2023-03-01T06:17:29;3.30;96.30
23520;DHT22;11936;50.820;4.336;2023-03-01T06:19:55;3.30;96.10
23520;DHT22;11936;50.820;4.336;2023-03-01T06:22:20;3.40;96.20
23520;DHT22;11936;50.820;4.336;2023-03-01T06:24:46;3.40;96.20
23520;DHT22;11936;50.820;4.336;2023-03-01T06:27:11;3.40;96.10
23520;DHT22;11936;50.820;4.336;2023-03-01T06:29:37;3.40;96.30
23520;DHT22;11936;50.820;4.336;2023-03-01T06:32:03;3.40;96.30
23520;DHT22;11936;50.820;4.336;2023-03-01T06:34:29;3.30;96.40
23520;DHT22;11936;50.820;4.336;2023-03-01T06:36:54;3.20;96.40
23520;DHT22;11936;50.820;4.336;2023-03-01T06:39:20;3.10;96.60
23520;DHT22;11936;50.820;4.336;2023-03-01T06:41:46;3.30;96.70
23520;DHT22;11936;50.820;4.336;2023-03-01T06:44:11;3.20;96.70
23520;DHT22;11936;50.820;4.336;2023-03-01T06:46:38;3.20;96.60
23520;DHT22;11936;50.820;4.336;2023-03-01T06:49:03;3.20;96.70
23520;DHT22;11936;50.820;4.336;2023-03-01T06:51:33;3.20;96.80
23520;DHT22;11936;50.820;4.336;2023-03-01T06:53:58;3.30;96.70
23520;DHT22;11936;50.820;4.336;2023-03-01T06:56:24;3.40;96.50
23520;DHT22;11936;50.820;4.336;2023-03-01T06:58:49;3.50;96.50
23520;DHT22;11936;50.820;4.336;2023-03-01T07:01:15;3.40;96.40
23520;DHT22;11936;50.820;4.336;2023-03-01T07:03:40;3.40;96.60
23520;DHT22;11936;50.820;4.336;2023-03-01T07:06:09;3.40;96.80
23520;DHT22;11936;50.820;4.336;2023-03-01T07:08:35;3.30;96.90
23520;DHT22;11936;50.820;4.336;2023-03-01T07:11:01;3.50;96.80
23520;DHT22;11936;50.820;4.336;2023-03-01T07:13:28;3.60;96.70
23520;DHT22;11936;50.820;4.336;2023-03-01T07:15:53;3.70;96.60
23520;DHT22;11936;50.820;4.336;2023-03-01T07:18:19;3.60;96.40
23520;DHT22;11936;50.820;4.336;2023-03-01T07:20:45;3.60;96.60
23520;DHT22;11936;50.820;4.336;2023-03-01T07:23:10;3.60;96.70
23520;DHT22;11936;50.820;4.336;2023-03-01T07:25:36;3.70;96.60
23520;DHT22;11936;50.820;4.336;2023-03-01T07:28:02;3.80;96.50
23520;DHT22;11936;50.820;4.336;2023-03-01T07:30:27;3.70;96.40
23520;DHT22;11936;50.820;4.336;2023-03-01T07:32:54;3.60;96.50
23520;DHT22;11936;50.820;4.336;2023-03-01T07:35:21;3.60;96.60
23520;DHT22;11936;50.820;4.336;2023-03-01T07:37:46;3.60;96.60
23520;DHT22;11936;50.820;4.336;2023-03-01T07:40:12;3.60;96.50
23520;DHT22;11936;50.820;4.336;2023-03-01T07:42:38;3.70;96.60
23520;DHT22;11936;50.820;4.336;2023-03-01T07:45:05;3.60;96.70
23520;DHT22;11936;50.820;4.336;2023-03-01T07:47:31;3.50;96.70
23520;DHT22;11936;50.820;4.336;2023-03-01T07:49:57;3.60;96.60
23520;DHT22;11936;50.820;4.336;2023-03-01T07:52:23;3.60;96.70
23520;DHT22;11936;50.820;4.336;2023-03-01T07:54:48;3.50;96.70
23520;DHT22;11936;50.820;4.336;2023-03-01T07:57:14;3.60;96.90
23520;DHT22;11936;50.820;4.336;2023-03-01T07:59:39;3.70;96.70
23520;DHT22;11936;50.820;4.336;2023-03-01T08:02:05;3.70;96.70
23520;DHT22;11936;50.820;4.336;2023-03-01T08:04:32;3.60;96.90
23520;DHT22;11936;50.820;4.336;2023-03-01T08:06:58;3.60;96.80
23520;DHT22;11936;50.820;4.336;2023-03-01T08:09:24;3.70;97.10
23520;DHT22;11936;50.820;4.336;2023-03-01T08:11:50;3.80;98.10
23520;DHT22;11936;50.820;4.336;2023-03-01T08:14:15;3.90;98.10
23520;DHT22;11936;50.820;4.336;2023-03-01T08:16:41;3.80;97.90
23520;DHT22;11936;50.820;4.336;2023-03-01T08:19:09;3.80;97.80
23520;DHT22;11936;50.820;4.336;2023-03-01T08:21:35;3.90;96.90
23520;DHT22;11936;50.820;4.336;2023-03-01T08:24:05;3.90;97.80
23520;DHT22;11936;50.820;4.336;2023-03-01T08:26:31;3.90;97.50
23520;DHT22;11936;50.820;4.336;2023-03-01T08:28:57;4.10;97.50
23520;DHT22;11936;50.820;4.336;2023-03-01T08:31:29;4.10;96.30
23520;DHT22;11936;50.820;4.336;2023-03-01T08:33:58;4.00;96.30
23520;DHT22;11936;50.820;4.336;2023-03-01T08:36:30;3.90;96.20
23520;DHT22;11936;50.820;4.336;2023-03-01T08:38:57;3.90;96.10
23520;DHT22;11936;50.820;4.336;2023-03-01T08:41:23;4.00;96.00
23520;DHT22;11936;50.820;4.336;2023-03-01T08:43:49;4.10;96.00
23520;DHT22;11936;50.820;4.336;2023-03-01T08:46:15;4.10;95.80
23520;DHT22;11936;50.820;4.336;2023-03-01T08:48:41;4.00;96.10
23520;DHT22;11936;50.820;4.336;2023-03-01T08:51:14;4.00;95.80
23520;DHT22;11936;50.820;4.336;2023-03-01T08:53:40;4.10;95.80
23520;DHT22;11936;50.820;4.336;2023-03-01T08:56:08;4.00;95.80
23520;DHT22;11936;50.820;4.336;2023-03-01T08:58:34;4.10;95.80
23520;DHT22;11936;50.820;4.336;2023-03-01T09:01:00;4.00;95.50
23520;DHT22;11936;50.820;4.336;2023-03-01T09:03:31;4.00;95.80
23520;DHT22;11936;50.820;4.336;2023-03-01T09:06:00;4.00;95.80
23520;DHT22;11936;50.820;4.336;2023-03-01T09:08:27;4.10;95.60
23520;DHT22;11936;50.820;4.336;2023-03-01T09:10:53;4.20;95.70
23520;DHT22;11936;50.820;4.336;2023-03-01T09:13:18;4.30;95.50
23520;DHT22;11936;50.820;4.336;2023-03-01T09:15:44;4.30;95.40
23520;DHT22;11936;50.820;4.336;2023-03-01T09:18:09;4.30;95.30
23520;DHT22;11936;50.820;4.336;2023-03-01T09:20:35;4.20;95.20
23520;DHT22;11936;50.820;4.336;2023-03-01T09:23:01;4.10;95.30
23520;DHT22;11936;50.820;4.336;2023-03-01T09:25:26;4.10;95.60
23520;DHT22;11936;50.820;4.336;2023-03-01T09:27:53;4.10;95.60
23520;DHT22;11936;50.820;4.336;2023-03-01T09:30:19;4.20;95.70
23520;DHT22;11936;50.820;4.336;2023-03-01T09:32:45;4.30;95.70
23520;DHT22;11936;50.820;4.336;2023-03-01T09:35:11;4.30;95.50
23520;DHT22;11936;50.820;4.336;2023-03-01T09:37:37;4.40;95.50
23520;DHT22;11936;50.820;4.336;2023-03-01T09:40:04;4.40;95.60
23520;DHT22;11936;50.820;4.336;2023-03-01T09:42:34;4.50;95.30
23520;DHT22;11936;50.820;4.336;2023-03-01T09:45:06;4.60;95.00
23520;DHT22;11936;50.820;4.336;2023-03-01T09:47:36;4.50;95.20
23520;DHT22;11936;50.820;4.336;2023-03-01T09:50:16;4.30;95.10
23520;DHT22;11936;50.820;4.336;2023-03-01T09:53:03;4.30;95.70
23520;DHT22;11936;50.820;4.336;2023-03-01T09:55:45;4.30;95.50
23520;DHT22;11936;50.820;4.336;2023-03-01T09:58:47;4.50;95.10
23520;DHT22;11936;50.820;4.336;2023-03-01T10:01:28;4.50;94.70
23520;DHT22;11936;50.820;4.336;2023-03-01T10:09:42;4.60;94.50
23520;DHT22;11936;50.820;4.336;2023-03-01T10:12:27;4.60;94.70
23520;DHT22;11936;50.820;4.336;2023-03-01T10:15:11;4.60;95.50
23520;DHT22;11936;50.820;4.336;2023-03-01T10:17:48;4.70;95.20
23520;DHT22;11936;50.820;4.336;2023-03-01T10:22:41;5.00;94.50
23520;DHT22;11936;50.820;4.336;2023-03-01T10:25:13;5.10;94.50
23520;DHT22;11936;50.820;4.336;2023-03-01T10:27:52;5.10;94.50
23520;DHT22;11936;50.820;4.336;2023-03-01T10:32:48;4.90;94.30
23520;DHT22;11936;50.820;4.336;2023-03-01T10:35:16;5.10;94.50
23520;DHT22;11936;50.820;4.336;2023-03-01T10:38:14;5.10;94.40
23520;DHT22;11936;50.820;4.336;2023-03-01T10:41:04;5.10;94.40
23520;DHT22;11936;50.820;4.336;2023-03-01T10:43:49;5.30;93.90
23520;DHT22;11936;50.820;4.336;2023-03-01T10:46:31;5.40;94.50
23520;DHT22;11936;50.820;4.336;2023-03-01T10:51:43;5.30;93.00
23520;DHT22;11936;50.820;4.336;2023-03-01T10:57:00;5.30;93.40
23520;DHT22;11936;50.820;4.336;2023-03-01T10:59:31;5.30;93.10
23520;DHT22;11936;50.820;4.336;2023-03-01T11:04:35;5.40;93.40
23520;DHT22;11936;50.820;4.336;2023-03-01T11:07:02;5.50;93.50
23520;DHT22;11936;50.820;4.336;2023-03-01T11:09:32;5.50;93.20
23520;DHT22;11936;50.820;4.336;2023-03-01T11:12:05;5.70;93.10
23520;DHT22;11936;50.820;4.336;2023-03-01T11:14:36;5.60;93.10
23520;DHT22;11936;50.820;4.336;2023-03-01T11:17:03;5.60;92.90
23520;DHT22;11936;50.820;4.336;2023-03-01T11:19:31;5.70;92.90
23520;DHT22;11936;50.820;4.336;2023-03-01T11:22:03;5.80;92.80
23520;DHT22;11936;50.820;4.336;2023-03-01T11:24:40;5.80;93.30
23520;DHT22;11936;50.820;4.336;2023-03-01T11:32:24;6.00;92.20
23520;DHT22;11936;50.820;4.336;2023-03-01T11:34:58;5.90;92.10
23520;DHT22;11936;50.820;4.336;2023-03-01T11:37:41;5.80;91.90
23520;DHT22;11936;50.820;4.336;2023-03-01T11:40:16;5.90;93.00
23520;DHT22;11936;50.820;4.336;2023-03-01T11:51:14;6.40;91.60
23520;DHT22;11936;50.820;4.336;2023-03-01T11:53:57;6.40;91.40
23520;DHT22;11936;50.820;4.336;2023-03-01T11:56:55;6.60;91.30
23520;DHT22;11936;50.820;4.336;2023-03-01T12:10:57;6.80;92.60
23520;DHT22;11936;50.820;4.336;2023-03-01T12:13:51;6.80;91.00
23520;DHT22;11936;50.820;4.336;2023-03-01T12:19:15;6.60;90.50
23520;DHT22;11936;50.820;4.336;2023-03-01T12:30:04;6.90;90.60
23520;DHT22;11936;50.820;4.336;2023-03-01T12:32:47;6.90;89.90
23520;DHT22;11936;50.820;4.336;2023-03-01T12:49:09;7.00;90.10
23520;DHT22;11936;50.820;4.336;2023-03-01T12:51:38;7.00;90.10
23520;DHT22;11936;50.820;4.336;2023-03-01T12:54:15;7.00;89.00
23520;DHT22;11936;50.820;4.336;2023-03-01T12:56:41;7.00;88.90
23520;DHT22;11936;50.820;4.336;2023-03-01T13:02:23;7.00;88.90
23520;DHT22;11936;50.820;4.336;2023-03-01T13:04:53;7.10;91.60
23520;DHT22;11936;50.820;4.336;2023-03-01T13:07:30;7.10;90.00
23520;DHT22;11936;50.820;4.336;2023-03-01T13:18:03;7.20;89.80
23520;DHT22;11936;50.820;4.336;2023-03-01T13:20:46;7.30;90.60
23520;DHT22;11936;50.820;4.336;2023-03-01T13:28:51;7.30;90.10
23520;DHT22;11936;50.820;4.336;2023-03-01T13:33:50;7.30;89.00
23520;DHT22;11936;50.820;4.336;2023-03-01T13:36:46;7.30;89.10
23520;DHT22;11936;50.820;4.336;2023-03-01T13:41:56;7.50;88.40
23520;DHT22;11936;50.820;4.336;2023-03-01T13:46:57;7.50;87.50
23520;DHT22;11936;50.820;4.336;2023-03-01T13:49:29;7.50;85.70
23520;DHT22;11936;50.820;4.336;2023-03-01T13:51:55;7.50;87.40
23520;DHT22;11936;50.820;4.336;2023-03-01T13:54:32;7.50;89.40
23520;DHT22;11936;50.820;4.336;2023-03-01T13:56:59;7.50;87.50
23520;DHT22;11936;50.820;4.336;2023-03-01T13:59:28;7.50;88.00
23520;DHT22;11936;50.820;4.336;2023-03-01T14:01:58;7.50;87.70
23520;DHT22;11936;50.820;4.336;2023-03-01T14:04:28;7.50;86.40
23520;DHT22;11936;50.820;4.336;2023-03-01T14:07:22;7.50;86.50
23520;DHT22;11936;50.820;4.336;2023-03-01T14:09:57;7.60;86.90
23520;DHT22;11936;50.820;4.336;2023-03-01T14:12:52;7.70;87.90
23520;DHT22;11936;50.820;4.336;2023-03-01T14:15:27;7.70;86.60
23520;DHT22;11936;50.820;4.336;2023-03-01T14:18:04;7.80;87.40
23520;DHT22;11936;50.820;4.336;2023-03-01T14:20:39;7.80;88.50
23520;DHT22;11936;50.820;4.336;2023-03-01T14:23:14;7.90;86.20
23520;DHT22;11936;50.820;4.336;2023-03-01T14:28:16;7.80;85.20
23520;DHT22;11936;50.820;4.336;2023-03-01T14:30:46;7.90;85.60
23520;DHT22;11936;50.820;4.336;2023-03-01T14:33:30;7.90;86.30
23520;DHT22;11936;50.820;4.336;2023-03-01T14:38:46;7.90;84.40
23520;DHT22;11936;50.820;4.336;2023-03-01T14:41:19;7.90;85.40
23520;DHT22;11936;50.820;4.336;2023-03-01T14:43:54;7.80;85.50
23520;DHT22;11936;50.820;4.336;2023-03-01T14:46:33;7.80;84.80
23520;DHT22;11936;50.820;4.336;2023-03-01T14:51:38;7.80;85.50
23520;DHT22;11936;50.820;4.336;2023-03-01T14:54:28;7.80;85.20
23520;DHT22;11936;50.820;4.336;2023-03-01T14:57:00;8.00;88.10
23520;DHT22;11936;50.820;4.336;2023-03-01T14:59:26;8.00;85.90
23520;DHT22;11936;50.820;4.336;2023-03-01T15:01:54;8.00;85.40
23520;DHT22;11936;50.820;4.336;2023-03-01T15:04:21;8.00;85.10
23520;DHT22;11936;50.820;4.336;2023-03-01T15:06:51;8.10;85.90
23520;DHT22;11936;50.820;4.336;2023-03-01T15:09:17;8.20;86.50
23520;DHT22;11936;50.820;4.336;2023-03-01T15:11:44;8.20;85.10
23520;DHT22;11936;50.820;4.336;2023-03-01T15:14:39;8.20;84.60
23520;DHT22;11936;50.820;4.336;2023-03-01T15:17:35;8.20;84.50
23520;DHT22;11936;50.820;4.336;2023-03-01T15:20:17;8.20;86.30
23520;DHT22;11936;50.820;4.336;2023-03-01T15:22:46;8.20;85.00
23520;DHT22;11936;50.820;4.336;2023-03-01T15:25:25;8.30;87.00
23520;DHT22;11936;50.820;4.336;2023-03-01T15:27:53;8.40;86.10
23520;DHT22;11936;50.820;4.336;2023-03-01T15:32:48;8.40;84.50
23520;DHT22;11936;50.820;4.336;2023-03-01T15:35:43;8.50;92.40
23520;DHT22;11936;50.820;4.336;2023-03-01T15:38:36;8.60;87.60
23520;DHT22;11936;50.820;4.336;2023-03-01T15:43:49;8.50;84.90
23520;DHT22;11936;50.820;4.336;2023-03-01T15:46:16;8.50;85.10
23520;DHT22;11936;50.820;4.336;2023-03-01T15:48:48;8.40;85.90
23520;DHT22;11936;50.820;4.336;2023-03-01T15:51:15;8.40;87.70
23520;DHT22;11936;50.820;4.336;2023-03-01T15:53:42;8.50;85.50
23520;DHT22;11936;50.820;4.336;2023-03-01T15:56:09;8.40;85.80
23520;DHT22;11936;50.820;4.336;2023-03-01T15:58:35;8.40;86.60
23520;DHT22;11936;50.820;4.336;2023-03-01T16:01:01;8.40;87.30
23520;DHT22;11936;50.820;4.336;2023-03-01T16:03:29;8.30;85.60
23520;DHT22;11936;50.820;4.336;2023-03-01T16:05:55;8.20;85.30
23520;DHT22;11936;50.820;4.336;2023-03-01T16:08:20;8.30;86.20
23520;DHT22;11936;50.820;4.336;2023-03-01T16:10:46;8.30;86.00
23520;DHT22;11936;50.820;4.336;2023-03-01T16:13:13;8.30;87.60
23520;DHT22;11936;50.820;4.336;2023-03-01T16:15:39;8.40;84.50
23520;DHT22;11936;50.820;4.336;2023-03-01T16:18:06;8.40;84.60
23520;DHT22;11936;50.820;4.336;2023-03-01T16:20:33;8.40;84.50
23520;DHT22;11936;50.820;4.336;2023-03-01T16:23:04;8.50;85.10
23520;DHT22;11936;50.820;4.336;2023-03-01T16:25:30;8.50;87.80
23520;DHT22;11936;50.820;4.336;2023-03-01T16:27:56;8.60;85.10
23520;DHT22;11936;50.820;4.336;2023-03-01T16:30:24;8.50;85.30
23520;DHT22;11936;50.820;4.336;2023-03-01T16:32:51;8.40;85.30
23520;DHT22;11936;50.820;4.336;2023-03-01T16:35:19;8.40;86.30
23520;DHT22;11936;50.820;4.336;2023-03-01T16:37:46;8.40;87.50
23520;DHT22;11936;50.820;4.336;2023-03-01T16:40:21;8.40;85.60
23520;DHT22;11936;50.820;4.336;2023-03-01T16:42:50;8.30;85.70
23520;DHT22;11936;50.820;4.336;2023-03-01T16:45:16;8.40;85.60
23520;DHT22;11936;50.820;4.336;2023-03-01T16:47:42;8.30;86.20
23520;DHT22;11936;50.820;4.336;2023-03-01T16:50:08;8.20;85.90
23520;DHT22;11936;50.820;4.336;2023-03-01T16:52:34;8.20;87.70
23520;DHT22;11936;50.820;4.336;2023-03-01T16:55:00;8.10;89.00
23520;DHT22;11936;50.820;4.336;2023-03-01T16:57:25;8.30;89.70
23520;DHT22;11936;50.820;4.336;2023-03-01T16:59:52;8.20;90.70
23520;DHT22;11936;50.820;4.336;2023-03-01T17:02:19;8.10;89.80
23520;DHT22;11936;50.820;4.336;2023-03-01T17:04:45;8.10;86.60
23520;DHT22;11936;50.820;4.336;2023-03-01T17:07:16;8.10;89.20
23520;DHT22;11936;50.820;4.336;2023-03-01T17:09:42;8.10;90.00
23520;DHT22;11936;50.820;4.336;2023-03-01T17:12:07;8.00;86.40
23520;DHT22;11936;50.820;4.336;2023-03-01T17:14:33;7.90;87.80
23520;DHT22;11936;50.820;4.336;2023-03-01T17:16:58;7.80;88.20
23520;DHT22;11936;50.820;4.336;2023-03-01T17:19:24;7.80;87.80
23520;DHT22;11936;50.820;4.336;2023-03-01T17:21:49;7.80;89.00
23520;DHT22;11936;50.820;4.336;2023-03-01T17:24:15;7.70;90.20
23520;DHT22;11936;50.820;4.336;2023-03-01T17:26:41;7.80;90.40
23520;DHT22;11936;50.820;4.336;2023-03-01T17:29:07;7.80;89.50
23520;DHT22;11936;50.820;4.336;2023-03-01T17:31:33;7.70;90.30
23520;DHT22;11936;50.820;4.336;2023-03-01T17:33:59;7.70;89.90
23520;DHT22;11936;50.820;4.336;2023-03-01T17:36:24;7.60;90.10
23520;DHT22;11936;50.820;4.336;2023-03-01T17:38:50;7.60;90.70
23520;DHT22;11936;50.820;4.336;2023-03-01T17:41:17;7.60;91.10
23520;DHT22;11936;50.820;4.336;2023-03-01T17:43:46;7.60;90.50
23520;DHT22;11936;50.820;4.336;2023-03-01T17:46:12;7.60;91.60
23520;DHT22;11936;50.820;4.336;2023-03-01T17:48:38;7.50;90.10
23520;DHT22;11936;50.820;4.336;2023-03-01T17:51:08;7.50;90.80
23520;DHT22;11936;50.820;4.336;2023-03-01T17:53:36;7.40;90.40
23520;DHT22;11936;50.820;4.336;2023-03-01T17:56:04;7.40;91.00
23520;DHT22;11936;50.820;4.336;2023-03-01T17:58:30;7.40;91.90
23520;DHT22;11936;50.820;4.336;2023-03-01T18:01:12;7.40;91.90
23520;DHT22;11936;50.820;4.336;2023-03-01T18:03:39;7.30;90.60